createdAt,value
2023-03-26T00:02:33.086Z,0.70
2023-03-26T00:08:36.652Z,0.90
2023-03-26T00:14:40.183Z,0.90
2023-03-26T00:20:41.924Z,1.00
2023-03-26T00:26:44.400Z,0.90
2023-03-26T00:32:53.508Z,0.90
2023-03-26T00:38:57.987Z,1.20
2023-03-26T00:44:59.814Z,1.20
2023-03-26T00:51:01.574Z,0.70
2023-03-26T00:57:06.047Z,0.90
2023-03-26T01:03:14.145Z,1.10
2023-03-26T01:09:44.542Z,1.20
2023-03-26T01:15:50.355Z,1.10
2023-03-26T01:21:52.096Z,1.00
2023-03-26T01:27:55.358Z,1.00
2023-03-26T01:34:13.470Z,0.90
2023-03-26T01:40:27.001Z,1.30
2023-03-26T01:46:29.998Z,0.50
2023-03-26T01:52:31.521Z,0.60
2023-03-26T01:58:58.943Z,0.90
2023-03-26T02:05:23.774Z,0.60
2023-03-26T02:11:34.791Z,0.60
2023-03-26T02:17:39.484Z,0.80
2023-03-26T02:23:46.071Z,0.80
2023-03-26T02:29:49.677Z,0.70
2023-03-26T02:35:51.836Z,1.00
2023-03-26T02:41:53.945Z,0.80
2023-03-26T02:47:56.814Z,0.70
2023-03-26T02:54:18.754Z,1.00
2023-03-26T03:00:21.934Z,0.90
2023-03-26T03:06:30.340Z,1.10
2023-03-26T03:12:34.170Z,1.10
2023-03-26T03:18:36.987Z,1.10
2023-03-26T03:24:39.199Z,0.90
2023-03-26T03:30:41.213Z,0.90
2023-03-26T03:36:53.443Z,1.00
2023-03-26T03:43:06.295Z,0.90
2023-03-26T03:49:14.914Z,0.80
2023-03-26T03:55:16.698Z,0.90
2023-03-26T04:07:32.479Z,0.90
2023-03-26T04:13:40.477Z,1.20
2023-03-26T04:20:05.501Z,0.80
2023-03-26T04:26:09.767Z,0.90
2023-03-26T04:32:34.280Z,0.90
2023-03-26T04:38:41.421Z,0.90
2023-03-26T04:44:44.026Z,0.90
2023-03-26T04:50:48.951Z,0.80
2023-03-26T04:57:00.845Z,1.20
2023-03-26T05:03:31.612Z,1.00
2023-03-26T05:09:36.540Z,1.30
2023-03-26T05:16:31.536Z,0.90
2023-03-26T05:22:47.920Z,0.90
2023-03-26T05:29:06.014Z,0.80
2023-03-26T05:35:11.898Z,1.10
2023-03-26T05:41:13.947Z,1.10
2023-03-26T05:47:17.098Z,0.80
2023-03-26T05:53:20.829Z,0.90
2023-03-26T05:59:23.188Z,0.90
2023-03-26T06:05:31.928Z,1.00
2023-03-26T06:11:41.917Z,1.40
2023-03-26T06:17:43.836Z,1.30
2023-03-26T06:23:53.799Z,1.00
2023-03-26T06:30:11.328Z,0.80
2023-03-26T06:36:19.027Z,0.70
2023-03-26T06:43:06.884Z,0.80
2023-03-26T06:49:05.416Z,0.80
2023-03-26T06:55:22.227Z,0.90
2023-03-26T07:01:55.973Z,1.00
2023-03-26T07:08:26.317Z,0.70
2023-03-26T07:14:48.277Z,1.20
2023-03-26T07:21:13.580Z,0.90
2023-03-26T07:27:43.762Z,0.90
2023-03-26T07:33:54.204Z,1.00
2023-03-26T07:40:52.480Z,1.00
2023-03-26T07:47:25.078Z,0.70
2023-03-26T07:53:47.725Z,0.60
2023-03-26T08:00:30.322Z,0.80
2023-03-26T08:06:39.557Z,0.70
2023-03-26T08:13:32.143Z,1.00
2023-03-26T08:19:58.658Z,0.60
2023-03-26T08:26:03.485Z,0.50
2023-03-26T08:32:09.263Z,0.70
2023-03-26T08:38:13.626Z,0.90
2023-03-26T08:44:49.556Z,0.90
2023-03-26T08:51:09.830Z,0.80
2023-03-26T08:57:15.077Z,0.90
2023-03-26T09:03:23.094Z,0.90
2023-03-26T09:10:00.986Z,0.70
2023-03-26T09:16:21.174Z,0.70
2023-03-26T09:22:57.081Z,0.80
2023-03-26T09:29:34.741Z,0.80
2023-03-26T09:36:08.381Z,0.60
2023-03-26T09:42:22.308Z,1.70
2023-03-26T09:48:26.662Z,0.60
2023-03-26T09:54:30.875Z,0.70
2023-03-26T10:01:00.253Z,0.70
2023-03-26T10:07:31.778Z,0.80
2023-03-26T10:13:46.840Z,0.70
2023-03-26T10:19:58.995Z,0.50
2023-03-26T10:26:10.393Z,0.70
2023-03-26T10:32:51.083Z,0.50
2023-03-26T10:38:58.864Z,0.80
2023-03-26T10:45:35.777Z,0.80
2023-03-26T10:52:08.463Z,0.60
2023-03-26T10:58:29.265Z,0.70
2023-03-26T11:05:06.562Z,0.50
2023-03-26T11:11:20.694Z,0.50
2023-03-26T11:17:45.505Z,0.40
2023-03-26T11:24:04.461Z,0.60
2023-03-26T11:30:41.099Z,0.60
2023-03-26T11:36:47.386Z,0.50
2023-03-26T11:42:50.864Z,0.50
2023-03-26T11:48:56.933Z,0.50
2023-03-26T11:54:58.714Z,0.60
2023-03-26T12:01:06.437Z,0.40
2023-03-26T12:07:23.049Z,0.50
2023-03-26T12:13:38.211Z,0.40
2023-03-26T12:19:42.150Z,0.60
2023-03-26T12:25:43.674Z,0.50
2023-03-26T12:31:52.460Z,0.60
2023-03-26T12:38:16.012Z,0.60
2023-03-26T12:44:53.470Z,1.20
2023-03-26T12:51:17.939Z,0.90
2023-03-26T12:57:23.385Z,0.90
2023-03-26T13:03:52.862Z,0.70
2023-03-26T13:10:03.322Z,0.60
2023-03-26T13:16:30.303Z,0.50
2023-03-26T13:29:07.829Z,0.60
2023-03-26T13:35:26.812Z,0.70
2023-03-26T13:41:46.719Z,0.60
2023-03-26T13:47:50.171Z,0.70
2023-03-26T13:53:59.855Z,0.80
2023-03-26T14:00:12.111Z,0.70
2023-03-26T14:06:22.710Z,1.00
2023-03-26T14:12:52.403Z,0.90
2023-03-26T14:19:25.304Z,0.90
2023-03-26T14:26:06.462Z,0.60
2023-03-26T14:32:09.257Z,0.80
2023-03-26T14:38:38.995Z,0.80
2023-03-26T14:44:55.801Z,0.80
2023-03-26T14:51:15.911Z,0.80
2023-03-26T14:57:33.348Z,0.90
2023-03-26T15:03:40.718Z,1.10
2023-03-26T15:10:09.484Z,1.10
2023-03-26T15:16:28.112Z,0.90
2023-03-26T15:22:58.070Z,0.90
2023-03-26T15:29:18.361Z,0.80
2023-03-26T15:35:50.495Z,0.90
2023-03-26T15:42:01.296Z,1.00
2023-03-26T15:48:12.343Z,1.00
2023-03-26T15:54:25.991Z,1.00
2023-03-26T16:00:34.350Z,0.80
2023-03-26T16:06:45.814Z,1.20
2023-03-26T16:13:17.644Z,0.60
2023-03-26T16:19:19.551Z,1.00
2023-03-26T16:25:32.861Z,0.80
2023-03-26T16:31:37.871Z,0.90
2023-03-26T16:37:49.889Z,0.80
2023-03-26T16:44:06.105Z,1.00
2023-03-26T16:50:18.090Z,1.00
2023-03-26T16:56:21.684Z,0.80
2023-03-26T17:02:31.340Z,0.90
2023-03-26T17:08:45.333Z,1.10
2023-03-26T17:15:16.169Z,1.60
2023-03-26T17:21:25.603Z,0.90
2023-03-26T17:27:36.996Z,1.00
2023-03-26T17:33:39.203Z,1.00
2023-03-26T17:39:46.128Z,1.20
2023-03-26T17:46:04.298Z,1.30
2023-03-26T17:52:47.452Z,1.70
2023-03-26T17:58:51.978Z,1.40
2023-03-26T18:04:56.050Z,1.50
2023-03-26T18:11:16.490Z,1.90
2023-03-26T18:17:18.124Z,1.90
2023-03-26T18:23:33.342Z,1.80
2023-03-26T18:29:35.887Z,2.10
2023-03-26T18:35:52.008Z,2.10
2023-03-26T18:41:54.015Z,2.20
2023-03-26T18:47:58.204Z,2.50
2023-03-26T18:54:02.602Z,2.80
2023-03-26T19:00:27.892Z,2.80
2023-03-26T19:06:39.844Z,2.60
2023-03-26T19:12:45.906Z,2.30
2023-03-26T19:18:47.733Z,2.30
2023-03-26T19:24:51.917Z,2.30
2023-03-26T19:31:00.566Z,2.90
2023-03-26T19:37:29.754Z,3.50
2023-03-26T19:43:31.544Z,3.00
2023-03-26T19:49:47.249Z,2.90
2023-03-26T19:56:16.484Z,2.90
2023-03-26T20:02:21.319Z,2.80
2023-03-26T20:08:26.816Z,3.10
2023-03-26T20:14:31.716Z,3.00
2023-03-26T20:20:35.107Z,2.80
2023-03-26T20:26:36.646Z,3.30
2023-03-26T20:32:38.261Z,3.30
2023-03-26T20:38:48.157Z,3.30
2023-03-26T20:44:50.654Z,3.20
2023-03-26T20:50:56.494Z,2.90
2023-03-26T20:56:58.254Z,3.00
2023-03-26T21:03:00.053Z,3.20
2023-03-26T21:09:02.622Z,2.70
2023-03-26T21:15:10.295Z,3.20
2023-03-26T21:21:31.425Z,3.20
2023-03-26T21:27:36.600Z,3.10
2023-03-26T21:33:40.305Z,3.00
2023-03-26T21:39:44.280Z,3.10
2023-03-26T21:45:47.959Z,3.20
2023-03-26T21:51:49.886Z,2.90
2023-03-26T21:58:21.943Z,3.10
2023-03-26T22:04:34.080Z,3.30
2023-03-26T22:10:36.429Z,3.00
2023-03-26T22:16:38.720Z,3.40
2023-03-26T22:22:45.418Z,3.60
2023-03-26T22:28:47.561Z,3.20
2023-03-26T22:34:52.589Z,3.30
2023-03-26T22:40:56.332Z,3.20
2023-03-26T22:46:58.123Z,3.00
2023-03-26T22:52:59.798Z,3.40
2023-03-26T22:59:03.680Z,3.20
2023-03-26T23:05:05.597Z,3.50
2023-03-26T23:11:09.497Z,2.70
2023-03-26T23:17:13.905Z,2.60
2023-03-26T23:23:15.480Z,2.90
2023-03-26T23:29:16.919Z,2.80
2023-03-26T23:35:18.350Z,2.70
2023-03-26T23:41:22.078Z,2.70
2023-03-26T23:47:23.871Z,2.30
2023-03-26T23:53:27.595Z,3.50
2023-03-26T23:59:29.179Z,3.40
